Airport View

Enter AWOS ICAO identifier for current METAR.

ex. KFNL

KRQO 310255Z AUTO 11007KT 10SM CLR 20/15 A3016 RMK AO2 T01970147

31 May 2020 03:34

Frequency: 118.475

Phone: 405-262-0087

Other Area AWOS: KRCE - KHSD - KPWA - KOKC

TAF KOKC 302320Z 3100/3124 11006KT P6SM SKC FM311400 16012KT P6SM SKC